sensor_id;sensor_type;location;lat;lon;timestamp;P1;durP1;ratioP1;P2;durP2;ratioP2
68212;SDS011;55035;47.792;8.724;2022-12-18T00:02:04;45.50;;;16.30;;
68212;SDS011;55035;47.792;8.724;2022-12-18T00:04:31;33.85;;;12.55;;
68212;SDS011;55035;47.792;8.724;2022-12-18T00:06:59;40.88;;;13.50;;
68212;SDS011;55035;47.792;8.724;2022-12-18T00:09:26;43.08;;;15.10;;
68212;SDS011;55035;47.792;8.724;2022-12-18T00:11:54;46.72;;;15.15;;
68212;SDS011;55035;47.792;8.724;2022-12-18T00:14:22;46.40;;;15.00;;
68212;SDS011;55035;47.792;8.724;2022-12-18T00:16:50;40.50;;;14.45;;
68212;SDS011;55035;47.792;8.724;2022-12-18T00:19:17;41.90;;;13.10;;
68212;SDS011;55035;47.792;8.724;2022-12-18T00:21:44;50.15;;;15.57;;
68212;SDS011;55035;47.792;8.724;2022-12-18T00:24:11;40.72;;;11.55;;
68212;SDS011;55035;47.792;8.724;2022-12-18T00:26:38;41.70;;;13.97;;
68212;SDS011;55035;47.792;8.724;2022-12-18T00:29:07;39.08;;;14.05;;
68212;SDS011;55035;47.792;8.724;2022-12-18T00:31:35;49.92;;;16.58;;
68212;SDS011;55035;47.792;8.724;2022-12-18T00:34:02;50.53;;;16.63;;
68212;SDS011;55035;47.792;8.724;2022-12-18T00:36:30;48.97;;;15.65;;
68212;SDS011;55035;47.792;8.724;2022-12-18T00:38:57;46.83;;;15.13;;
68212;SDS011;55035;47.792;8.724;2022-12-18T00:41:25;44.30;;;14.65;;
68212;SDS011;55035;47.792;8.724;2022-12-18T00:44:12;49.08;;;14.73;;
68212;SDS011;55035;47.792;8.724;2022-12-18T00:46:39;50.03;;;14.98;;
68212;SDS011;55035;47.792;8.724;2022-12-18T00:49:06;44.22;;;15.05;;
68212;SDS011;55035;47.792;8.724;2022-12-18T00:51:33;53.47;;;15.77;;
68212;SDS011;55035;47.792;8.724;2022-12-18T00:54:00;45.63;;;15.55;;
68212;SDS011;55035;47.792;8.724;2022-12-18T00:56:27;50.88;;;16.05;;
68212;SDS011;55035;47.792;8.724;2022-12-18T00:58:54;51.28;;;15.98;;
68212;SDS011;55035;47.792;8.724;2022-12-18T01:01:22;75.25;;;17.23;;
68212;SDS011;55035;47.792;8.724;2022-12-18T01:03:49;50.70;;;16.13;;
68212;SDS011;55035;47.792;8.724;2022-12-18T01:06:16;48.65;;;14.70;;
68212;SDS011;55035;47.792;8.724;2022-12-18T01:08:44;49.63;;;15.65;;
68212;SDS011;55035;47.792;8.724;2022-12-18T01:11:12;45.85;;;14.68;;
68212;SDS011;55035;47.792;8.724;2022-12-18T01:13:40;47.28;;;14.77;;
68212;SDS011;55035;47.792;8.724;2022-12-18T01:16:07;48.43;;;14.00;;
68212;SDS011;55035;47.792;8.724;2022-12-18T01:18:36;46.67;;;14.88;;
68212;SDS011;55035;47.792;8.724;2022-12-18T01:21:05;48.83;;;15.50;;
68212;SDS011;55035;47.792;8.724;2022-12-18T01:23:32;60.85;;;16.73;;
68212;SDS011;55035;47.792;8.724;2022-12-18T01:26:03;51.67;;;15.20;;
68212;SDS011;55035;47.792;8.724;2022-12-18T01:28:30;51.43;;;16.23;;
68212;SDS011;55035;47.792;8.724;2022-12-18T01:30:57;51.13;;;15.98;;
68212;SDS011;55035;47.792;8.724;2022-12-18T01:33:24;47.35;;;16.05;;
68212;SDS011;55035;47.792;8.724;2022-12-18T01:35:52;52.83;;;16.05;;
68212;SDS011;55035;47.792;8.724;2022-12-18T01:38:20;51.28;;;15.30;;
68212;SDS011;55035;47.792;8.724;2022-12-18T01:40:47;55.43;;;15.33;;
68212;SDS011;55035;47.792;8.724;2022-12-18T01:43:14;50.60;;;16.35;;
68212;SDS011;55035;47.792;8.724;2022-12-18T01:45:40;54.30;;;14.77;;
68212;SDS011;55035;47.792;8.724;2022-12-18T01:48:07;56.50;;;16.52;;
68212;SDS011;55035;47.792;8.724;2022-12-18T01:50:36;51.75;;;16.67;;
68212;SDS011;55035;47.792;8.724;2022-12-18T01:53:07;55.00;;;15.97;;
68212;SDS011;55035;47.792;8.724;2022-12-18T01:55:37;47.38;;;14.75;;
68212;SDS011;55035;47.792;8.724;2022-12-18T01:58:07;47.92;;;15.23;;
68212;SDS011;55035;47.792;8.724;2022-12-18T02:00:34;44.92;;;13.68;;
68212;SDS011;55035;47.792;8.724;2022-12-18T02:03:00;52.83;;;15.27;;
68212;SDS011;55035;47.792;8.724;2022-12-18T02:05:49;53.10;;;14.80;;
68212;SDS011;55035;47.792;8.724;2022-12-18T02:08:23;41.92;;;14.48;;
68212;SDS011;55035;47.792;8.724;2022-12-18T02:10:56;48.03;;;14.35;;
68212;SDS011;55035;47.792;8.724;2022-12-18T02:13:29;49.30;;;15.40;;
68212;SDS011;55035;47.792;8.724;2022-12-18T02:16:00;41.67;;;14.30;;
68212;SDS011;55035;47.792;8.724;2022-12-18T02:18:30;42.87;;;13.17;;
68212;SDS011;55035;47.792;8.724;2022-12-18T02:20:59;35.00;;;11.32;;
68212;SDS011;55035;47.792;8.724;2022-12-18T02:23:42;41.40;;;12.65;;
68212;SDS011;55035;47.792;8.724;2022-12-18T02:26:15;47.25;;;14.57;;
68212;SDS011;55035;47.792;8.724;2022-12-18T02:28:43;44.70;;;13.40;;
68212;SDS011;55035;47.792;8.724;2022-12-18T02:31:14;40.73;;;13.67;;
68212;SDS011;55035;47.792;8.724;2022-12-18T02:33:43;35.45;;;10.55;;
68212;SDS011;55035;47.792;8.724;2022-12-18T02:36:11;47.10;;;13.15;;
68212;SDS011;55035;47.792;8.724;2022-12-18T02:38:41;51.47;;;14.52;;
68212;SDS011;55035;47.792;8.724;2022-12-18T02:41:12;40.92;;;13.23;;
68212;SDS011;55035;47.792;8.724;2022-12-18T02:43:42;48.27;;;14.17;;
68212;SDS011;55035;47.792;8.724;2022-12-18T02:46:21;50.45;;;13.77;;
68212;SDS011;55035;47.792;8.724;2022-12-18T02:48:50;42.05;;;13.27;;
68212;SDS011;55035;47.792;8.724;2022-12-18T02:51:22;41.00;;;12.55;;
68212;SDS011;55035;47.792;8.724;2022-12-18T02:53:56;35.25;;;9.52;;
68212;SDS011;55035;47.792;8.724;2022-12-18T02:56:26;43.33;;;11.83;;
68212;SDS011;55035;47.792;8.724;2022-12-18T02:58:57;51.67;;;14.75;;
68212;SDS011;55035;47.792;8.724;2022-12-18T03:01:33;48.90;;;12.77;;
68212;SDS011;55035;47.792;8.724;2022-12-18T03:04:04;47.53;;;14.43;;
68212;SDS011;55035;47.792;8.724;2022-12-18T03:06:35;45.65;;;13.32;;
68212;SDS011;55035;47.792;8.724;2022-12-18T03:09:04;38.93;;;12.43;;
68212;SDS011;55035;47.792;8.724;2022-12-18T03:11:33;41.75;;;13.02;;
68212;SDS011;55035;47.792;8.724;2022-12-18T03:14:19;45.97;;;13.55;;
68212;SDS011;55035;47.792;8.724;2022-12-18T03:16:49;40.85;;;11.63;;
68212;SDS011;55035;47.792;8.724;2022-12-18T03:19:20;34.75;;;10.38;;
68212;SDS011;55035;47.792;8.724;2022-12-18T03:21:51;33.27;;;10.90;;
68212;SDS011;55035;47.792;8.724;2022-12-18T03:24:19;31.80;;;10.60;;
68212;SDS011;55035;47.792;8.724;2022-12-18T03:26:48;27.92;;;8.50;;
68212;SDS011;55035;47.792;8.724;2022-12-18T03:29:19;29.38;;;9.15;;
68212;SDS011;55035;47.792;8.724;2022-12-18T03:31:51;41.17;;;11.45;;
68212;SDS011;55035;47.792;8.724;2022-12-18T03:34:21;28.00;;;8.13;;
68212;SDS011;55035;47.792;8.724;2022-12-18T03:36:49;41.55;;;12.25;;
68212;SDS011;55035;47.792;8.724;2022-12-18T03:39:19;51.50;;;14.82;;
68212;SDS011;55035;47.792;8.724;2022-12-18T03:41:57;46.25;;;13.90;;
68212;SDS011;55035;47.792;8.724;2022-12-18T03:44:39;48.40;;;15.05;;
68212;SDS011;55035;47.792;8.724;2022-12-18T03:47:07;44.70;;;14.53;;
68212;SDS011;55035;47.792;8.724;2022-12-18T03:49:38;35.75;;;10.80;;
68212;SDS011;55035;47.792;8.724;2022-12-18T03:52:07;42.25;;;12.10;;
68212;SDS011;55035;47.792;8.724;2022-12-18T03:54:37;50.00;;;13.00;;
68212;SDS011;55035;47.792;8.724;2022-12-18T03:57:12;37.17;;;10.60;;
68212;SDS011;55035;47.792;8.724;2022-12-18T03:59:41;45.03;;;13.03;;
68212;SDS011;55035;47.792;8.724;2022-12-18T04:02:10;58.38;;;14.90;;
68212;SDS011;55035;47.792;8.724;2022-12-18T04:04:37;44.72;;;13.77;;
68212;SDS011;55035;47.792;8.724;2022-12-18T04:07:05;43.58;;;13.02;;
68212;SDS011;55035;47.792;8.724;2022-12-18T04:09:36;40.78;;;13.65;;
68212;SDS011;55035;47.792;8.724;2022-12-18T04:12:05;48.33;;;13.07;;
68212;SDS011;55035;47.792;8.724;2022-12-18T04:14:32;46.28;;;14.85;;
68212;SDS011;55035;47.792;8.724;2022-12-18T04:17:04;46.92;;;12.70;;
68212;SDS011;55035;47.792;8.724;2022-12-18T04:19:32;43.38;;;12.50;;
68212;SDS011;55035;47.792;8.724;2022-12-18T04:22:01;48.95;;;13.73;;
68212;SDS011;55035;47.792;8.724;2022-12-18T04:24:33;43.07;;;12.07;;
68212;SDS011;55035;47.792;8.724;2022-12-18T04:27:09;38.00;;;11.55;;
68212;SDS011;55035;47.792;8.724;2022-12-18T04:29:43;55.50;;;14.23;;
68212;SDS011;55035;47.792;8.724;2022-12-18T04:32:11;48.30;;;13.73;;
68212;SDS011;55035;47.792;8.724;2022-12-18T04:34:40;45.47;;;13.77;;
68212;SDS011;55035;47.792;8.724;2022-12-18T04:37:07;47.60;;;13.37;;
68212;SDS011;55035;47.792;8.724;2022-12-18T04:39:35;56.13;;;13.98;;
68212;SDS011;55035;47.792;8.724;2022-12-18T04:42:07;49.53;;;13.95;;
68212;SDS011;55035;47.792;8.724;2022-12-18T04:44:34;44.90;;;13.48;;
68212;SDS011;55035;47.792;8.724;2022-12-18T04:47:02;53.35;;;14.27;;
68212;SDS011;55035;47.792;8.724;2022-12-18T04:49:30;49.73;;;14.63;;
68212;SDS011;55035;47.792;8.724;2022-12-18T04:51:57;57.08;;;15.07;;
68212;SDS011;55035;47.792;8.724;2022-12-18T04:54:24;41.10;;;13.02;;
68212;SDS011;55035;47.792;8.724;2022-12-18T04:56:51;50.15;;;13.95;;
68212;SDS011;55035;47.792;8.724;2022-12-18T04:59:17;54.78;;;15.55;;
68212;SDS011;55035;47.792;8.724;2022-12-18T05:01:44;44.80;;;14.17;;
68212;SDS011;55035;47.792;8.724;2022-12-18T05:04:13;49.30;;;13.48;;
68212;SDS011;55035;47.792;8.724;2022-12-18T05:06:41;50.40;;;13.63;;
68212;SDS011;55035;47.792;8.724;2022-12-18T05:09:08;48.00;;;14.52;;
68212;SDS011;55035;47.792;8.724;2022-12-18T05:11:35;44.00;;;13.52;;
68212;SDS011;55035;47.792;8.724;2022-12-18T05:14:02;42.73;;;12.90;;
68212;SDS011;55035;47.792;8.724;2022-12-18T05:16:28;49.45;;;13.80;;
68212;SDS011;55035;47.792;8.724;2022-12-18T05:18:55;42.67;;;13.02;;
68212;SDS011;55035;47.792;8.724;2022-12-18T05:21:22;48.55;;;13.63;;
68212;SDS011;55035;47.792;8.724;2022-12-18T05:23:50;57.60;;;15.00;;
68212;SDS011;55035;47.792;8.724;2022-12-18T05:26:17;47.70;;;12.90;;
68212;SDS011;55035;47.792;8.724;2022-12-18T05:28:44;52.95;;;14.57;;
68212;SDS011;55035;47.792;8.724;2022-12-18T05:31:12;51.50;;;13.65;;
68212;SDS011;55035;47.792;8.724;2022-12-18T05:33:39;51.70;;;13.73;;
68212;SDS011;55035;47.792;8.724;2022-12-18T05:36:06;49.47;;;14.50;;
68212;SDS011;55035;47.792;8.724;2022-12-18T05:38:34;51.27;;;14.30;;
68212;SDS011;55035;47.792;8.724;2022-12-18T05:41:03;42.47;;;12.88;;
68212;SDS011;55035;47.792;8.724;2022-12-18T05:43:31;46.88;;;13.88;;
68212;SDS011;55035;47.792;8.724;2022-12-18T05:45:58;48.45;;;13.73;;
68212;SDS011;55035;47.792;8.724;2022-12-18T05:48:29;49.38;;;13.02;;
68212;SDS011;55035;47.792;8.724;2022-12-18T05:50:56;51.73;;;13.50;;
68212;SDS011;55035;47.792;8.724;2022-12-18T05:53:29;44.13;;;12.98;;
68212;SDS011;55035;47.792;8.724;2022-12-18T05:55:59;45.05;;;13.05;;
68212;SDS011;55035;47.792;8.724;2022-12-18T05:58:27;48.05;;;13.35;;
68212;SDS011;55035;47.792;8.724;2022-12-18T06:00:54;52.35;;;13.70;;
68212;SDS011;55035;47.792;8.724;2022-12-18T06:03:20;40.57;;;13.03;;
68212;SDS011;55035;47.792;8.724;2022-12-18T06:05:47;47.58;;;13.10;;
68212;SDS011;55035;47.792;8.724;2022-12-18T06:08:14;46.08;;;13.63;;
68212;SDS011;55035;47.792;8.724;2022-12-18T06:10:41;46.20;;;13.32;;
68212;SDS011;55035;47.792;8.724;2022-12-18T06:13:08;47.05;;;13.32;;
68212;SDS011;55035;47.792;8.724;2022-12-18T06:15:37;48.13;;;13.77;;
68212;SDS011;55035;47.792;8.724;2022-12-18T06:18:04;48.85;;;13.15;;
68212;SDS011;55035;47.792;8.724;2022-12-18T06:20:31;35.33;;;12.23;;
68212;SDS011;55035;47.792;8.724;2022-12-18T06:22:58;43.80;;;12.95;;
68212;SDS011;55035;47.792;8.724;2022-12-18T06:25:25;52.20;;;14.10;;
68212;SDS011;55035;47.792;8.724;2022-12-18T06:27:52;44.07;;;12.63;;
68212;SDS011;55035;47.792;8.724;2022-12-18T06:30:18;46.00;;;12.35;;
68212;SDS011;55035;47.792;8.724;2022-12-18T06:32:47;48.78;;;13.18;;
68212;SDS011;55035;47.792;8.724;2022-12-18T06:35:14;45.28;;;12.65;;
68212;SDS011;55035;47.792;8.724;2022-12-18T06:37:41;49.83;;;12.98;;
68212;SDS011;55035;47.792;8.724;2022-12-18T06:42:45;48.20;;;13.52;;
68212;SDS011;55035;47.792;8.724;2022-12-18T06:45:12;51.92;;;14.27;;
68212;SDS011;55035;47.792;8.724;2022-12-18T06:47:39;42.42;;;12.93;;
68212;SDS011;55035;47.792;8.724;2022-12-18T06:50:07;50.20;;;13.38;;
68212;SDS011;55035;47.792;8.724;2022-12-18T06:52:35;49.17;;;13.23;;
68212;SDS011;55035;47.792;8.724;2022-12-18T06:55:02;44.35;;;11.98;;
68212;SDS011;55035;47.792;8.724;2022-12-18T06:57:29;46.15;;;13.48;;
68212;SDS011;55035;47.792;8.724;2022-12-18T06:59:55;49.00;;;13.10;;
68212;SDS011;55035;47.792;8.724;2022-12-18T07:02:22;45.40;;;12.85;;
68212;SDS011;55035;47.792;8.724;2022-12-18T07:04:50;45.33;;;13.00;;
68212;SDS011;55035;47.792;8.724;2022-12-18T07:07:18;47.83;;;13.40;;
68212;SDS011;55035;47.792;8.724;2022-12-18T07:09:45;53.05;;;13.48;;
68212;SDS011;55035;47.792;8.724;2022-12-18T07:12:12;49.58;;;13.65;;
68212;SDS011;55035;47.792;8.724;2022-12-18T07:14:38;51.08;;;13.90;;
68212;SDS011;55035;47.792;8.724;2022-12-18T07:17:05;45.97;;;12.87;;
68212;SDS011;55035;47.792;8.724;2022-12-18T07:19:32;49.63;;;14.32;;
68212;SDS011;55035;47.792;8.724;2022-12-18T07:21:59;51.28;;;14.32;;
68212;SDS011;55035;47.792;8.724;2022-12-18T07:24:28;47.25;;;13.38;;
68212;SDS011;55035;47.792;8.724;2022-12-18T07:26:54;44.90;;;13.35;;
68212;SDS011;55035;47.792;8.724;2022-12-18T07:29:21;49.13;;;14.43;;
68212;SDS011;55035;47.792;8.724;2022-12-18T07:31:48;46.78;;;13.27;;
68212;SDS011;55035;47.792;8.724;2022-12-18T07:34:15;46.05;;;12.70;;
68212;SDS011;55035;47.792;8.724;2022-12-18T07:36:42;55.17;;;15.23;;
68212;SDS011;55035;47.792;8.724;2022-12-18T07:39:10;54.10;;;16.63;;
68212;SDS011;55035;47.792;8.724;2022-12-18T07:41:38;58.07;;;16.40;;
68212;SDS011;55035;47.792;8.724;2022-12-18T07:44:09;43.85;;;12.43;;
68212;SDS011;55035;47.792;8.724;2022-12-18T07:46:35;49.40;;;13.13;;
68212;SDS011;55035;47.792;8.724;2022-12-18T07:49:02;49.58;;;13.18;;
68212;SDS011;55035;47.792;8.724;2022-12-18T07:51:29;52.47;;;14.18;;
68212;SDS011;55035;47.792;8.724;2022-12-18T07:53:56;52.57;;;15.10;;
68212;SDS011;55035;47.792;8.724;2022-12-18T07:56:23;50.45;;;12.88;;
68212;SDS011;55035;47.792;8.724;2022-12-18T07:58:51;47.63;;;13.50;;
68212;SDS011;55035;47.792;8.724;2022-12-18T08:01:18;37.13;;;11.15;;
68212;SDS011;55035;47.792;8.724;2022-12-18T08:03:45;44.50;;;12.85;;
68212;SDS011;55035;47.792;8.724;2022-12-18T08:06:12;45.07;;;12.50;;
68212;SDS011;55035;47.792;8.724;2022-12-18T08:08:38;45.67;;;12.90;;
68212;SDS011;55035;47.792;8.724;2022-12-18T08:11:06;51.15;;;15.35;;
68212;SDS011;55035;47.792;8.724;2022-12-18T08:13:33;32.47;;;11.27;;
68212;SDS011;55035;47.792;8.724;2022-12-18T08:16:02;34.25;;;10.00;;
68212;SDS011;55035;47.792;8.724;2022-12-18T08:18:29;42.93;;;13.03;;
68212;SDS011;55035;47.792;8.724;2022-12-18T08:20:56;26.02;;;8.50;;
68212;SDS011;55035;47.792;8.724;2022-12-18T08:23:22;43.75;;;12.20;;
68212;SDS011;55035;47.792;8.724;2022-12-18T08:25:49;41.28;;;11.65;;
68212;SDS011;55035;47.792;8.724;2022-12-18T08:28:16;39.53;;;12.55;;
68212;SDS011;55035;47.792;8.724;2022-12-18T08:30:43;43.67;;;11.93;;
68212;SDS011;55035;47.792;8.724;2022-12-18T08:33:11;46.40;;;13.18;;
68212;SDS011;55035;47.792;8.724;2022-12-18T08:35:38;43.95;;;12.65;;
68212;SDS011;55035;47.792;8.724;2022-12-18T08:38:05;25.00;;;7.50;;
68212;SDS011;55035;47.792;8.724;2022-12-18T08:40:32;42.78;;;12.65;;
68212;SDS011;55035;47.792;8.724;2022-12-18T08:42:59;24.77;;;8.77;;
68212;SDS011;55035;47.792;8.724;2022-12-18T08:45:44;18.15;;;7.38;;
68212;SDS011;55035;47.792;8.724;2022-12-18T08:48:12;24.10;;;7.72;;
68212;SDS011;55035;47.792;8.724;2022-12-18T08:50:40;27.35;;;7.40;;
68212;SDS011;55035;47.792;8.724;2022-12-18T08:53:07;32.10;;;9.10;;
68212;SDS011;55035;47.792;8.724;2022-12-18T08:55:34;28.53;;;8.97;;
68212;SDS011;55035;47.792;8.724;2022-12-18T08:58:01;27.65;;;10.02;;
68212;SDS011;55035;47.792;8.724;2022-12-18T09:00:28;39.35;;;12.07;;
68212;SDS011;55035;47.792;8.724;2022-12-18T09:02:55;31.02;;;9.07;;
68212;SDS011;55035;47.792;8.724;2022-12-18T09:05:24;40.28;;;11.77;;
68212;SDS011;55035;47.792;8.724;2022-12-18T09:07:51;37.70;;;12.57;;
68212;SDS011;55035;47.792;8.724;2022-12-18T09:10:18;39.92;;;12.07;;
68212;SDS011;55035;47.792;8.724;2022-12-18T09:12:45;32.60;;;9.30;;
68212;SDS011;55035;47.792;8.724;2022-12-18T09:15:12;23.02;;;7.40;;
68212;SDS011;55035;47.792;8.724;2022-12-18T09:17:38;35.45;;;11.15;;
68212;SDS011;55035;47.792;8.724;2022-12-18T09:20:06;35.13;;;10.63;;
68212;SDS011;55035;47.792;8.724;2022-12-18T09:22:34;27.60;;;8.80;;
68212;SDS011;55035;47.792;8.724;2022-12-18T09:25:01;27.52;;;9.15;;
68212;SDS011;55035;47.792;8.724;2022-12-18T09:27:31;42.75;;;13.50;;
68212;SDS011;55035;47.792;8.724;2022-12-18T09:29:58;25.40;;;8.57;;
68212;SDS011;55035;47.792;8.724;2022-12-18T09:32:24;34.90;;;10.83;;
68212;SDS011;55035;47.792;8.724;2022-12-18T09:34:52;46.30;;;12.32;;
68212;SDS011;55035;47.792;8.724;2022-12-18T09:37:18;40.75;;;12.32;;
68212;SDS011;55035;47.792;8.724;2022-12-18T09:39:47;35.70;;;11.38;;
68212;SDS011;55035;47.792;8.724;2022-12-18T09:42:17;27.17;;;8.48;;
68212;SDS011;55035;47.792;8.724;2022-12-18T09:44:47;49.57;;;13.10;;
68212;SDS011;55035;47.792;8.724;2022-12-18T09:47:21;46.47;;;12.32;;
68212;SDS011;55035;47.792;8.724;2022-12-18T09:49:50;47.30;;;12.80;;
68212;SDS011;55035;47.792;8.724;2022-12-18T09:52:19;42.90;;;12.27;;
68212;SDS011;55035;47.792;8.724;2022-12-18T09:54:49;34.83;;;10.93;;
68212;SDS011;55035;47.792;8.724;2022-12-18T09:57:18;35.90;;;11.17;;
68212;SDS011;55035;47.792;8.724;2022-12-18T09:59:46;43.42;;;13.18;;
68212;SDS011;55035;47.792;8.724;2022-12-18T10:02:15;48.47;;;13.55;;
68212;SDS011;55035;47.792;8.724;2022-12-18T10:04:43;30.48;;;9.00;;
68212;SDS011;55035;47.792;8.724;2022-12-18T10:07:12;43.90;;;10.25;;
68212;SDS011;55035;47.792;8.724;2022-12-18T10:09:41;22.53;;;6.97;;
68212;SDS011;55035;47.792;8.724;2022-12-18T10:12:14;34.53;;;10.48;;
68212;SDS011;55035;47.792;8.724;2022-12-18T10:14:46;48.47;;;13.65;;
68212;SDS011;55035;47.792;8.724;2022-12-18T10:17:18;44.65;;;13.70;;
68212;SDS011;55035;47.792;8.724;2022-12-18T10:19:51;49.50;;;13.80;;
68212;SDS011;55035;47.792;8.724;2022-12-18T10:22:32;48.13;;;13.60;;
68212;SDS011;55035;47.792;8.724;2022-12-18T10:25:03;37.15;;;10.23;;
68212;SDS011;55035;47.792;8.724;2022-12-18T10:27:34;46.90;;;13.75;;
68212;SDS011;55035;47.792;8.724;2022-12-18T10:30:04;47.80;;;14.23;;
68212;SDS011;55035;47.792;8.724;2022-12-18T10:32:31;30.67;;;10.27;;
68212;SDS011;55035;47.792;8.724;2022-12-18T10:34:59;43.83;;;14.43;;
68212;SDS011;55035;47.792;8.724;2022-12-18T10:37:27;46.95;;;13.27;;
68212;SDS011;55035;47.792;8.724;2022-12-18T10:40:10;47.45;;;13.70;;
68212;SDS011;55035;47.792;8.724;2022-12-18T10:42:39;37.55;;;11.35;;
68212;SDS011;55035;47.792;8.724;2022-12-18T10:45:09;45.38;;;13.48;;
68212;SDS011;55035;47.792;8.724;2022-12-18T10:47:40;40.87;;;13.07;;
68212;SDS011;55035;47.792;8.724;2022-12-18T10:50:11;47.33;;;13.68;;
68212;SDS011;55035;47.792;8.724;2022-12-18T10:52:44;43.35;;;13.80;;
68212;SDS011;55035;47.792;8.724;2022-12-18T10:55:19;44.70;;;14.45;;
68212;SDS011;55035;47.792;8.724;2022-12-18T10:57:47;43.78;;;13.73;;
68212;SDS011;55035;47.792;8.724;2022-12-18T11:00:21;32.17;;;10.07;;
68212;SDS011;55035;47.792;8.724;2022-12-18T11:02:49;26.20;;;8.65;;
68212;SDS011;55035;47.792;8.724;2022-12-18T11:05:23;32.63;;;10.93;;
68212;SDS011;55035;47.792;8.724;2022-12-18T11:07:50;47.25;;;13.98;;
68212;SDS011;55035;47.792;8.724;2022-12-18T11:10:19;42.00;;;11.63;;
68212;SDS011;55035;47.792;8.724;2022-12-18T11:12:48;44.60;;;12.97;;
68212;SDS011;55035;47.792;8.724;2022-12-18T11:15:15;40.92;;;12.77;;
68212;SDS011;55035;47.792;8.724;2022-12-18T11:17:45;37.13;;;10.07;;
68212;SDS011;55035;47.792;8.724;2022-12-18T11:20:19;41.13;;;12.40;;
68212;SDS011;55035;47.792;8.724;2022-12-18T11:22:54;35.78;;;12.18;;
68212;SDS011;55035;47.792;8.724;2022-12-18T11:25:22;46.00;;;13.20;;
68212;SDS011;55035;47.792;8.724;2022-12-18T11:27:52;41.08;;;12.00;;
68212;SDS011;55035;47.792;8.724;2022-12-18T11:30:23;36.25;;;11.93;;
68212;SDS011;55035;47.792;8.724;2022-12-18T11:32:50;39.05;;;12.23;;
68212;SDS011;55035;47.792;8.724;2022-12-18T11:35:19;40.60;;;12.10;;
68212;SDS011;55035;47.792;8.724;2022-12-18T11:37:47;39.20;;;11.90;;
68212;SDS011;55035;47.792;8.724;2022-12-18T11:40:16;37.50;;;12.05;;
68212;SDS011;55035;47.792;8.724;2022-12-18T11:42:45;40.22;;;12.60;;
68212;SDS011;55035;47.792;8.724;2022-12-18T11:45:27;45.47;;;13.55;;
68212;SDS011;55035;47.792;8.724;2022-12-18T11:47:56;45.72;;;13.30;;
68212;SDS011;55035;47.792;8.724;2022-12-18T11:50:25;42.23;;;12.77;;
68212;SDS011;55035;47.792;8.724;2022-12-18T11:52:53;44.53;;;14.57;;
68212;SDS011;55035;47.792;8.724;2022-12-18T11:55:24;47.20;;;14.70;;
68212;SDS011;55035;47.792;8.724;2022-12-18T11:57:55;46.10;;;14.30;;
68212;SDS011;55035;47.792;8.724;2022-12-18T12:00:26;42.92;;;12.68;;
68212;SDS011;55035;47.792;8.724;2022-12-18T12:03:00;31.27;;;11.03;;
68212;SDS011;55035;47.792;8.724;2022-12-18T12:05:37;35.28;;;11.80;;
68212;SDS011;55035;47.792;8.724;2022-12-18T12:08:10;40.58;;;12.27;;
68212;SDS011;55035;47.792;8.724;2022-12-18T12:10:42;43.00;;;12.90;;
68212;SDS011;55035;47.792;8.724;2022-12-18T12:13:15;30.67;;;11.02;;
68212;SDS011;55035;47.792;8.724;2022-12-18T12:15:46;35.73;;;10.20;;
68212;SDS011;55035;47.792;8.724;2022-12-18T12:18:17;41.33;;;12.95;;
68212;SDS011;55035;47.792;8.724;2022-12-18T12:20:49;43.33;;;13.27;;
68212;SDS011;55035;47.792;8.724;2022-12-18T12:23:22;43.60;;;12.23;;
68212;SDS011;55035;47.792;8.724;2022-12-18T12:25:50;42.15;;;12.48;;
68212;SDS011;55035;47.792;8.724;2022-12-18T12:28:20;39.03;;;12.10;;
68212;SDS011;55035;47.792;8.724;2022-12-18T12:30:54;41.13;;;12.30;;
68212;SDS011;55035;47.792;8.724;2022-12-18T12:33:27;45.65;;;12.85;;
68212;SDS011;55035;47.792;8.724;2022-12-18T12:36:00;47.83;;;14.60;;
68212;SDS011;55035;47.792;8.724;2022-12-18T12:38:30;53.53;;;15.93;;
68212;SDS011;55035;47.792;8.724;2022-12-18T12:40:59;47.17;;;15.17;;
68212;SDS011;55035;47.792;8.724;2022-12-18T12:43:28;49.47;;;14.10;;
68212;SDS011;55035;47.792;8.724;2022-12-18T12:45:58;37.80;;;13.00;;
68212;SDS011;55035;47.792;8.724;2022-12-18T12:48:33;46.03;;;13.88;;
68212;SDS011;55035;47.792;8.724;2022-12-18T12:51:02;30.38;;;10.80;;
68212;SDS011;55035;47.792;8.724;2022-12-18T12:53:33;43.30;;;13.67;;
68212;SDS011;55035;47.792;8.724;2022-12-18T12:56:01;43.75;;;13.55;;
68212;SDS011;55035;47.792;8.724;2022-12-18T12:58:30;49.05;;;13.95;;
68212;SDS011;55035;47.792;8.724;2022-12-18T13:01:04;45.58;;;13.73;;
68212;SDS011;55035;47.792;8.724;2022-12-18T13:03:36;44.35;;;14.35;;
68212;SDS011;55035;47.792;8.724;2022-12-18T13:06:08;42.67;;;13.70;;
68212;SDS011;55035;47.792;8.724;2022-12-18T13:08:51;43.47;;;13.50;;
68212;SDS011;55035;47.792;8.724;2022-12-18T13:11:28;28.02;;;9.63;;
68212;SDS011;55035;47.792;8.724;2022-12-18T13:14:19;41.35;;;11.90;;
68212;SDS011;55035;47.792;8.724;2022-12-18T13:16:48;33.00;;;11.30;;
68212;SDS011;55035;47.792;8.724;2022-12-18T13:19:20;47.63;;;14.17;;
68212;SDS011;55035;47.792;8.724;2022-12-18T13:21:51;43.28;;;12.65;;
68212;SDS011;55035;47.792;8.724;2022-12-18T13:24:22;50.53;;;13.98;;
68212;SDS011;55035;47.792;8.724;2022-12-18T13:26:50;47.33;;;14.10;;
68212;SDS011;55035;47.792;8.724;2022-12-18T13:29:39;42.75;;;13.30;;
68212;SDS011;55035;47.792;8.724;2022-12-18T13:32:21;47.00;;;13.70;;
68212;SDS011;55035;47.792;8.724;2022-12-18T13:34:51;42.63;;;12.80;;
68212;SDS011;55035;47.792;8.724;2022-12-18T13:37:44;43.60;;;13.02;;
68212;SDS011;55035;47.792;8.724;2022-12-18T13:43:13;41.60;;;13.13;;
68212;SDS011;55035;47.792;8.724;2022-12-18T13:45:42;41.27;;;12.83;;
68212;SDS011;55035;47.792;8.724;2022-12-18T13:48:16;36.47;;;13.23;;
68212;SDS011;55035;47.792;8.724;2022-12-18T13:50:47;38.35;;;12.20;;
68212;SDS011;55035;47.792;8.724;2022-12-18T13:53:15;42.22;;;12.75;;
68212;SDS011;55035;47.792;8.724;2022-12-18T13:55:46;41.42;;;12.82;;
68212;SDS011;55035;47.792;8.724;2022-12-18T13:58:13;41.20;;;12.77;;
68212;SDS011;55035;47.792;8.724;2022-12-18T14:00:42;36.20;;;11.50;;
68212;SDS011;55035;47.792;8.724;2022-12-18T14:03:16;46.80;;;13.75;;
68212;SDS011;55035;47.792;8.724;2022-12-18T14:05:44;45.08;;;13.70;;
68212;SDS011;55035;47.792;8.724;2022-12-18T14:08:11;41.00;;;14.02;;
68212;SDS011;55035;47.792;8.724;2022-12-18T14:10:39;41.90;;;14.57;;
68212;SDS011;55035;47.792;8.724;2022-12-18T14:13:08;51.83;;;14.20;;
68212;SDS011;55035;47.792;8.724;2022-12-18T14:15:36;46.05;;;14.88;;
68212;SDS011;55035;47.792;8.724;2022-12-18T14:18:09;42.78;;;13.18;;
68212;SDS011;55035;47.792;8.724;2022-12-18T14:20:43;43.30;;;13.38;;
68212;SDS011;55035;47.792;8.724;2022-12-18T14:23:24;43.73;;;14.27;;
68212;SDS011;55035;47.792;8.724;2022-12-18T14:25:52;42.90;;;11.85;;
68212;SDS011;55035;47.792;8.724;2022-12-18T14:28:18;43.80;;;13.88;;
68212;SDS011;55035;47.792;8.724;2022-12-18T14:30:47;45.90;;;14.18;;
68212;SDS011;55035;47.792;8.724;2022-12-18T14:33:15;42.88;;;14.50;;
68212;SDS011;55035;47.792;8.724;2022-12-18T14:35:53;42.73;;;13.40;;
68212;SDS011;55035;47.792;8.724;2022-12-18T14:38:23;34.25;;;10.70;;
68212;SDS011;55035;47.792;8.724;2022-12-18T14:40:53;44.38;;;14.18;;
68212;SDS011;55035;47.792;8.724;2022-12-18T14:43:21;41.33;;;13.80;;